sensor_id;sensor_type;location;lat;lon;timestamp;pressure;altitude;pressure_sealevel;temperature;humidity
39681;BME280;26327;42.550;23.120;2023-05-31T00:01:08;92781.84;;;17.67;95.67
39681;BME280;26327;42.550;23.120;2023-05-31T00:03:34;92881.91;;;18.37;95.55
39681;BME280;26327;42.550;23.120;2023-05-31T00:06:00;92908.75;;;18.28;96.20
39681;BME280;26327;42.550;23.120;2023-05-31T00:08:25;92877.88;;;18.23;95.85
39681;BME280;26327;42.550;23.120;2023-05-31T00:10:51;92903.63;;;18.44;94.82
39681;BME280;26327;42.550;23.120;2023-05-31T00:13:16;92843.50;;;17.94;93.93
39681;BME280;26327;42.550;23.120;2023-05-31T00:15:42;92900.03;;;18.15;94.63
39681;BME280;26327;42.550;23.120;2023-05-31T00:18:07;92851.59;;;17.63;95.19
39681;BME280;26327;42.550;23.120;2023-05-31T00:20:33;92879.19;;;17.72;95.72
39681;BME280;26327;42.550;23.120;2023-05-31T00:22:58;92880.06;;;17.66;96.10
39681;BME280;26327;42.550;23.120;2023-05-31T00:25:23;92909.03;;;17.78;96.90
39681;BME280;26327;42.550;23.120;2023-05-31T00:27:49;92844.00;;;17.25;97.63
39681;BME280;26327;42.550;23.120;2023-05-31T00:30:14;92832.91;;;17.23;97.69
39681;BME280;26327;42.550;23.120;2023-05-31T00:32:40;92898.31;;;17.61;97.78
39681;BME280;26327;42.550;23.120;2023-05-31T00:35:05;92888.47;;;18.05;94.54
39681;BME280;26327;42.550;23.120;2023-05-31T00:37:31;92876.16;;;17.57;95.86
39681;BME280;26327;42.550;23.120;2023-05-31T00:40:05;92892.78;;;17.69;95.50
39681;BME280;26327;42.550;23.120;2023-05-31T00:42:31;92918.03;;;17.34;97.56
39681;BME280;26327;42.550;23.120;2023-05-31T00:44:57;92876.53;;;17.06;97.78
39681;BME280;26327;42.550;23.120;2023-05-31T00:47:23;92844.53;;;17.15;96.01
39681;BME280;26327;42.550;23.120;2023-05-31T00:49:49;92841.75;;;17.10;96.47
39681;BME280;26327;42.550;23.120;2023-05-31T00:52:14;92837.16;;;16.87;97.68
39681;BME280;26327;42.550;23.120;2023-05-31T00:54:40;92901.53;;;17.45;96.48
39681;BME280;26327;42.550;23.120;2023-05-31T00:57:06;92831.63;;;17.14;95.82
39681;BME280;26327;42.550;23.120;2023-05-31T00:59:32;92794.22;;;16.82;95.72
39681;BME280;26327;42.550;23.120;2023-05-31T01:01:57;92916.88;;;17.29;96.81
39681;BME280;26327;42.550;23.120;2023-05-31T01:04:25;92909.25;;;16.85;99.74
39681;BME280;26327;42.550;23.120;2023-05-31T01:06:50;92904.56;;;16.87;100.00
39681;BME280;26327;42.550;23.120;2023-05-31T01:09:17;92868.72;;;16.99;98.61
39681;BME280;26327;42.550;23.120;2023-05-31T01:19:54;92912.44;;;17.67;96.91
39681;BME280;26327;42.550;23.120;2023-05-31T01:22:45;92917.97;;;17.58;96.42
39681;BME280;26327;42.550;23.120;2023-05-31T01:27:39;92826.59;;;17.12;96.72
39681;BME280;26327;42.550;23.120;2023-05-31T01:30:07;92875.84;;;17.47;95.98
39681;BME280;26327;42.550;23.120;2023-05-31T01:32:34;92851.56;;;17.33;95.91
39681;BME280;26327;42.550;23.120;2023-05-31T01:35:01;92859.72;;;17.43;96.27
39681;BME280;26327;42.550;23.120;2023-05-31T01:37:26;92912.84;;;17.63;97.34
39681;BME280;26327;42.550;23.120;2023-05-31T01:39:52;92842.47;;;17.17;97.38
39681;BME280;26327;42.550;23.120;2023-05-31T01:42:19;92903.56;;;17.43;98.55
39681;BME280;26327;42.550;23.120;2023-05-31T01:44:46;92888.19;;;17.28;99.37
39681;BME280;26327;42.550;23.120;2023-05-31T01:47:14;92894.75;;;17.55;98.89
39681;BME280;26327;42.550;23.120;2023-05-31T01:49:41;92894.75;;;17.74;97.14
39681;BME280;26327;42.550;23.120;2023-05-31T01:52:09;92851.63;;;17.45;96.11
39681;BME280;26327;42.550;23.120;2023-05-31T01:54:35;92872.72;;;17.02;97.85
39681;BME280;26327;42.550;23.120;2023-05-31T01:57:03;92844.59;;;16.72;100.00
39681;BME280;26327;42.550;23.120;2023-05-31T01:59:29;92896.63;;;16.93;100.00
39681;BME280;26327;42.550;23.120;2023-05-31T02:01:55;92873.75;;;16.82;100.00
39681;BME280;26327;42.550;23.120;2023-05-31T02:04:22;92895.97;;;16.80;100.00
39681;BME280;26327;42.550;23.120;2023-05-31T02:06:47;92887.88;;;16.56;100.00
39681;BME280;26327;42.550;23.120;2023-05-31T02:09:13;92892.69;;;16.59;100.00
39681;BME280;26327;42.550;23.120;2023-05-31T02:11:38;92837.88;;;16.01;100.00
39681;BME280;26327;42.550;23.120;2023-05-31T02:14:03;92881.28;;;16.47;100.00
39681;BME280;26327;42.550;23.120;2023-05-31T02:16:29;92907.25;;;17.05;100.00
39681;BME280;26327;42.550;23.120;2023-05-31T02:18:54;92878.53;;;16.67;100.00
39681;BME280;26327;42.550;23.120;2023-05-31T02:21:21;92833.72;;;16.44;100.00
39681;BME280;26327;42.550;23.120;2023-05-31T02:23:50;92818.94;;;16.49;100.00
39681;BME280;26327;42.550;23.120;2023-05-31T02:26:16;92870.47;;;16.87;100.00
39681;BME280;26327;42.550;23.120;2023-05-31T02:28:42;92831.75;;;16.82;100.00
39681;BME280;26327;42.550;23.120;2023-05-31T02:31:07;92800.34;;;16.76;100.00
39681;BME280;26327;42.550;23.120;2023-05-31T02:33:33;92821.19;;;16.89;99.54
39681;BME280;26327;42.550;23.120;2023-05-31T02:35:58;92886.75;;;17.14;100.00
39681;BME280;26327;42.550;23.120;2023-05-31T02:38:24;92898.56;;;17.05;100.00
39681;BME280;26327;42.550;23.120;2023-05-31T02:40:50;92793.72;;;16.48;100.00
39681;BME280;26327;42.550;23.120;2023-05-31T02:43:16;92828.91;;;16.65;100.00
39681;BME280;26327;42.550;23.120;2023-05-31T02:45:42;92776.38;;;16.29;100.00
39681;BME280;26327;42.550;23.120;2023-05-31T02:48:07;92872.78;;;16.95;100.00
39681;BME280;26327;42.550;23.120;2023-05-31T02:50:33;92890.06;;;17.03;100.00
39681;BME280;26327;42.550;23.120;2023-05-31T02:52:59;92888.75;;;16.93;100.00
39681;BME280;26327;42.550;23.120;2023-05-31T02:55:25;92827.22;;;16.71;100.00
39681;BME280;26327;42.550;23.120;2023-05-31T02:57:51;92892.34;;;17.36;99.48
39681;BME280;26327;42.550;23.120;2023-05-31T03:00:17;92908.91;;;17.54;98.20
39681;BME280;26327;42.550;23.120;2023-05-31T03:02:43;92903.22;;;17.39;98.17
39681;BME280;26327;42.550;23.120;2023-05-31T03:05:09;92903.59;;;17.06;99.99
39681;BME280;26327;42.550;23.120;2023-05-31T03:07:37;92880.34;;;17.10;99.79
39681;BME280;26327;42.550;23.120;2023-05-31T03:10:03;92857.19;;;17.00;99.87
39681;BME280;26327;42.550;23.120;2023-05-31T03:12:32;92899.44;;;17.35;99.56
39681;BME280;26327;42.550;23.120;2023-05-31T03:14:58;92900.94;;;17.43;98.85
39681;BME280;26327;42.550;23.120;2023-05-31T03:17:23;92904.97;;;17.45;99.00
39681;BME280;26327;42.550;23.120;2023-05-31T03:19:48;92912.47;;;17.42;100.00
39681;BME280;26327;42.550;23.120;2023-05-31T03:22:14;92847.50;;;17.00;98.89
39681;BME280;26327;42.550;23.120;2023-05-31T03:24:39;92914.81;;;17.31;100.00
39681;BME280;26327;42.550;23.120;2023-05-31T03:27:06;92850.63;;;16.91;100.00
39681;BME280;26327;42.550;23.120;2023-05-31T03:29:33;92907.38;;;17.47;98.73
39681;BME280;26327;42.550;23.120;2023-05-31T03:31:58;92916.94;;;17.59;98.36
39681;BME280;26327;42.550;23.120;2023-05-31T03:34:24;92881.84;;;17.36;99.40
39681;BME280;26327;42.550;23.120;2023-05-31T03:36:49;92899.47;;;17.47;99.68
39681;BME280;26327;42.550;23.120;2023-05-31T03:39:16;92837.38;;;16.86;100.00
39681;BME280;26327;42.550;23.120;2023-05-31T03:41:41;92843.66;;;17.03;100.00
39681;BME280;26327;42.550;23.120;2023-05-31T03:44:07;92894.91;;;17.24;100.00
39681;BME280;26327;42.550;23.120;2023-05-31T03:46:32;92849.31;;;17.00;100.00
39681;BME280;26327;42.550;23.120;2023-05-31T03:48:57;92926.84;;;17.39;100.00
39681;BME280;26327;42.550;23.120;2023-05-31T03:51:23;92912.34;;;17.37;100.00
39681;BME280;26327;42.550;23.120;2023-05-31T03:53:48;92928.25;;;17.60;100.00
39681;BME280;26327;42.550;23.120;2023-05-31T03:56:14;92915.41;;;17.52;100.00
39681;BME280;26327;42.550;23.120;2023-05-31T03:58:39;92856.78;;;17.21;100.00
39681;BME280;26327;42.550;23.120;2023-05-31T04:01:05;92930.78;;;17.85;99.17
39681;BME280;26327;42.550;23.120;2023-05-31T04:03:31;92834.22;;;17.32;98.65
39681;BME280;26327;42.550;23.120;2023-05-31T04:05:57;92929.19;;;17.84;98.67
39681;BME280;26327;42.550;23.120;2023-05-31T04:08:22;92894.22;;;17.83;98.26
39681;BME280;26327;42.550;23.120;2023-05-31T04:10:48;92910.44;;;18.10;96.85
39681;BME280;26327;42.550;23.120;2023-05-31T04:13:14;92854.53;;;17.73;96.99
39681;BME280;26327;42.550;23.120;2023-05-31T04:15:39;92928.53;;;18.18;97.59
39681;BME280;26327;42.550;23.120;2023-05-31T04:18:05;92860.94;;;17.77;97.47
39681;BME280;26327;42.550;23.120;2023-05-31T04:20:30;92867.25;;;17.88;97.39
39681;BME280;26327;42.550;23.120;2023-05-31T04:22:56;92867.22;;;17.76;97.67
39681;BME280;26327;42.550;23.120;2023-05-31T04:25:21;92849.19;;;17.61;97.96
39681;BME280;26327;42.550;23.120;2023-05-31T04:27:47;92929.69;;;18.34;97.35
39681;BME280;26327;42.550;23.120;2023-05-31T04:30:12;92869.84;;;17.76;98.16
39681;BME280;26327;42.550;23.120;2023-05-31T04:32:38;92870.19;;;17.80;98.55
39681;BME280;26327;42.550;23.120;2023-05-31T04:35:04;92860.59;;;17.74;98.62
39681;BME280;26327;42.550;23.120;2023-05-31T04:37:31;92877.41;;;17.84;98.47
39681;BME280;26327;42.550;23.120;2023-05-31T04:39:58;92929.81;;;18.28;98.54
39681;BME280;26327;42.550;23.120;2023-05-31T04:42:27;92927.19;;;18.39;97.65
39681;BME280;26327;42.550;23.120;2023-05-31T04:44:53;92826.19;;;17.75;97.97
39681;BME280;26327;42.550;23.120;2023-05-31T04:47:26;92937.41;;;18.47;98.67
39681;BME280;26327;42.550;23.120;2023-05-31T04:49:57;92942.34;;;18.55;99.12
39681;BME280;26327;42.550;23.120;2023-05-31T04:52:27;92910.97;;;18.42;98.73
39681;BME280;26327;42.550;23.120;2023-05-31T04:54:55;92899.63;;;18.42;98.39
39681;BME280;26327;42.550;23.120;2023-05-31T04:57:21;92925.41;;;18.51;99.08
39681;BME280;26327;42.550;23.120;2023-05-31T04:59:47;92943.72;;;18.58;99.09
39681;BME280;26327;42.550;23.120;2023-05-31T05:02:13;92939.41;;;18.75;98.56
39681;BME280;26327;42.550;23.120;2023-05-31T05:04:38;92876.34;;;18.45;97.53
39681;BME280;26327;42.550;23.120;2023-05-31T05:07:03;92910.94;;;18.72;96.25
39681;BME280;26327;42.550;23.120;2023-05-31T05:09:30;92973.69;;;18.99;96.98
39681;BME280;26327;42.550;23.120;2023-05-31T05:11:55;92935.88;;;18.70;97.58
39681;BME280;26327;42.550;23.120;2023-05-31T05:14:21;92973.00;;;19.15;96.06
39681;BME280;26327;42.550;23.120;2023-05-31T05:16:47;92974.25;;;19.24;95.05
39681;BME280;26327;42.550;23.120;2023-05-31T05:19:12;92910.63;;;18.92;94.15
39681;BME280;26327;42.550;23.120;2023-05-31T05:21:37;92978.25;;;19.27;94.61
39681;BME280;26327;42.550;23.120;2023-05-31T05:24:03;92899.59;;;18.72;95.32
39681;BME280;26327;42.550;23.120;2023-05-31T05:26:28;92980.56;;;19.58;93.13
39681;BME280;26327;42.550;23.120;2023-05-31T05:28:54;92988.91;;;19.32;94.73
39681;BME280;26327;42.550;23.120;2023-05-31T05:31:19;92959.38;;;19.06;94.80
39681;BME280;26327;42.550;23.120;2023-05-31T05:33:45;92974.94;;;18.96;95.68
39681;BME280;26327;42.550;23.120;2023-05-31T05:36:10;92976.06;;;19.35;94.47
39681;BME280;26327;42.550;23.120;2023-05-31T05:38:36;92938.53;;;19.05;94.51
39681;BME280;26327;42.550;23.120;2023-05-31T05:41:01;92977.34;;;19.09;95.13
39681;BME280;26327;42.550;23.120;2023-05-31T05:43:26;93000.81;;;19.34;94.98
39681;BME280;26327;42.550;23.120;2023-05-31T05:45:54;92989.59;;;19.39;94.59
39681;BME280;26327;42.550;23.120;2023-05-31T05:48:19;92982.59;;;19.33;95.40
39681;BME280;26327;42.550;23.120;2023-05-31T05:50:45;92969.78;;;19.25;95.52
39681;BME280;26327;42.550;23.120;2023-05-31T05:53:10;93005.06;;;19.47;95.18
39681;BME280;26327;42.550;23.120;2023-05-31T05:55:36;92947.09;;;19.35;94.11
39681;BME280;26327;42.550;23.120;2023-05-31T05:58:02;93002.09;;;19.67;93.57
39681;BME280;26327;42.550;23.120;2023-05-31T06:00:27;93015.13;;;19.97;92.07
39681;BME280;26327;42.550;23.120;2023-05-31T06:02:53;93003.34;;;19.88;92.15
39681;BME280;26327;42.550;23.120;2023-05-31T06:05:18;92893.84;;;19.22;91.57
39681;BME280;26327;42.550;23.120;2023-05-31T06:07:53;92975.88;;;19.60;91.94
39681;BME280;26327;42.550;23.120;2023-05-31T06:10:18;92956.50;;;19.55;92.26
39681;BME280;26327;42.550;23.120;2023-05-31T06:12:44;92990.53;;;20.08;90.70
39681;BME280;26327;42.550;23.120;2023-05-31T06:15:10;93019.19;;;20.16;90.73
39681;BME280;26327;42.550;23.120;2023-05-31T06:17:35;93001.13;;;19.96;91.24
39681;BME280;26327;42.550;23.120;2023-05-31T06:20:01;92991.75;;;19.89;90.79
39681;BME280;26327;42.550;23.120;2023-05-31T06:22:30;92936.16;;;19.90;88.46
39681;BME280;26327;42.550;23.120;2023-05-31T06:24:57;93024.44;;;20.28;88.62
39681;BME280;26327;42.550;23.120;2023-05-31T06:27:23;93012.06;;;20.17;87.74
39681;BME280;26327;42.550;23.120;2023-05-31T06:29:48;92961.94;;;19.88;86.47
39681;BME280;26327;42.550;23.120;2023-05-31T06:32:20;92959.59;;;20.03;85.86
39681;BME280;26327;42.550;23.120;2023-05-31T06:34:46;92900.66;;;19.69;85.47
39681;BME280;26327;42.550;23.120;2023-05-31T06:37:11;93032.47;;;20.61;85.15
39681;BME280;26327;42.550;23.120;2023-05-31T06:39:37;92998.94;;;20.33;84.90
39681;BME280;26327;42.550;23.120;2023-05-31T06:42:02;93031.09;;;20.42;85.50
39681;BME280;26327;42.550;23.120;2023-05-31T06:44:28;92952.88;;;19.96;85.52
39681;BME280;26327;42.550;23.120;2023-05-31T06:46:53;93013.75;;;20.34;84.75
39681;BME280;26327;42.550;23.120;2023-05-31T06:49:19;92960.88;;;20.01;84.57
39681;BME280;26327;42.550;23.120;2023-05-31T06:51:44;93007.56;;;20.40;85.12
39681;BME280;26327;42.550;23.120;2023-05-31T06:54:10;92951.13;;;20.01;85.71
39681;BME280;26327;42.550;23.120;2023-05-31T06:56:35;92940.72;;;19.95;86.88
39681;BME280;26327;42.550;23.120;2023-05-31T06:59:00;93022.13;;;20.43;87.24
39681;BME280;26327;42.550;23.120;2023-05-31T07:01:26;92941.78;;;20.10;87.42
39681;BME280;26327;42.550;23.120;2023-05-31T07:03:51;92959.75;;;19.97;88.37
39681;BME280;26327;42.550;23.120;2023-05-31T07:06:17;93004.50;;;20.20;87.97
39681;BME280;26327;42.550;23.120;2023-05-31T07:08:42;93015.88;;;20.09;88.32
39681;BME280;26327;42.550;23.120;2023-05-31T07:11:07;92969.03;;;19.99;86.83
39681;BME280;26327;42.550;23.120;2023-05-31T07:13:33;92973.53;;;20.16;86.92
39681;BME280;26327;42.550;23.120;2023-05-31T07:15:58;92978.88;;;20.04;86.83
39681;BME280;26327;42.550;23.120;2023-05-31T07:18:24;92982.44;;;20.26;87.08
39681;BME280;26327;42.550;23.120;2023-05-31T07:20:49;92967.78;;;20.19;87.48
39681;BME280;26327;42.550;23.120;2023-05-31T07:23:15;93031.06;;;20.70;88.48
39681;BME280;26327;42.550;23.120;2023-05-31T07:25:40;92962.81;;;20.34;89.29
39681;BME280;26327;42.550;23.120;2023-05-31T07:28:06;92963.97;;;20.26;89.44
39681;BME280;26327;42.550;23.120;2023-05-31T07:30:31;92965.22;;;20.64;86.56
39681;BME280;26327;42.550;23.120;2023-05-31T07:32:57;92993.53;;;20.68;87.25
39681;BME280;26327;42.550;23.120;2023-05-31T07:35:22;92959.78;;;20.70;86.17
39681;BME280;26327;42.550;23.120;2023-05-31T07:37:47;92957.84;;;20.49;86.52
39681;BME280;26327;42.550;23.120;2023-05-31T07:40:13;92987.09;;;21.10;84.75
39681;BME280;26327;42.550;23.120;2023-05-31T07:42:40;93003.41;;;21.06;85.24
39681;BME280;26327;42.550;23.120;2023-05-31T07:45:09;93008.78;;;21.12;83.50
39681;BME280;26327;42.550;23.120;2023-05-31T07:47:35;92996.69;;;21.16;83.76
39681;BME280;26327;42.550;23.120;2023-05-31T07:50:00;92912.31;;;20.75;84.49
39681;BME280;26327;42.550;23.120;2023-05-31T07:52:26;93013.16;;;21.34;85.43
39681;BME280;26327;42.550;23.120;2023-05-31T07:54:51;93020.84;;;21.36;86.70
39681;BME280;26327;42.550;23.120;2023-05-31T07:57:17;93020.28;;;21.73;83.74
39681;BME280;26327;42.550;23.120;2023-05-31T07:59:43;93029.53;;;22.09;79.87
39681;BME280;26327;42.550;23.120;2023-05-31T08:02:08;93025.44;;;22.01;78.84
39681;BME280;26327;42.550;23.120;2023-05-31T08:04:33;93000.38;;;22.25;76.63
39681;BME280;26327;42.550;23.120;2023-05-31T08:06:59;92951.88;;;22.47;75.24
39681;BME280;26327;42.550;23.120;2023-05-31T08:09:26;93028.81;;;22.84;74.63
39681;BME280;26327;42.550;23.120;2023-05-31T08:11:52;92978.38;;;22.74;74.09
39681;BME280;26327;42.550;23.120;2023-05-31T08:14:17;93002.41;;;23.26;71.78
39681;BME280;26327;42.550;23.120;2023-05-31T08:16:42;93031.84;;;23.24;71.97
39681;BME280;26327;42.550;23.120;2023-05-31T08:19:08;93009.31;;;23.64;70.44
39681;BME280;26327;42.550;23.120;2023-05-31T08:21:33;92916.63;;;23.05;68.64
39681;BME280;26327;42.550;23.120;2023-05-31T08:24:01;93008.81;;;24.14;69.13
39681;BME280;26327;42.550;23.120;2023-05-31T08:26:27;93001.75;;;24.35;68.18
39681;BME280;26327;42.550;23.120;2023-05-31T08:28:53;92904.41;;;23.89;64.73
39681;BME280;26327;42.550;23.120;2023-05-31T08:31:18;93002.19;;;25.00;61.80
39681;BME280;26327;42.550;23.120;2023-05-31T08:33:56;92951.44;;;25.27;58.96
39681;BME280;26327;42.550;23.120;2023-05-31T08:36:23;93016.28;;;25.51;60.01
39681;BME280;26327;42.550;23.120;2023-05-31T08:38:48;93004.84;;;25.81;59.02
39681;BME280;26327;42.550;23.120;2023-05-31T08:41:14;92962.84;;;25.68;58.85
39681;BME280;26327;42.550;23.120;2023-05-31T08:43:40;93016.91;;;26.53;55.65
39681;BME280;26327;42.550;23.120;2023-05-31T08:46:07;92992.16;;;26.92;55.80
39681;BME280;26327;42.550;23.120;2023-05-31T08:48:43;93012.34;;;27.76;50.17
39681;BME280;26327;42.550;23.120;2023-05-31T08:51:09;92989.00;;;27.87;52.16
39681;BME280;26327;42.550;23.120;2023-05-31T08:53:36;92888.59;;;27.67;49.75
39681;BME280;26327;42.550;23.120;2023-05-31T08:56:03;92967.28;;;27.99;47.64
39681;BME280;26327;42.550;23.120;2023-05-31T08:58:30;92987.34;;;28.20;48.51
39681;BME280;26327;42.550;23.120;2023-05-31T09:00:56;92990.41;;;28.56;47.46
39681;BME280;26327;42.550;23.120;2023-05-31T09:03:22;92992.34;;;28.93;46.96
39681;BME280;26327;42.550;23.120;2023-05-31T09:05:48;92985.41;;;28.92;46.65
39681;BME280;26327;42.550;23.120;2023-05-31T09:08:14;92950.41;;;29.07;45.12
39681;BME280;26327;42.550;23.120;2023-05-31T09:10:40;92979.69;;;28.99;45.76
39681;BME280;26327;42.550;23.120;2023-05-31T09:13:06;92920.25;;;28.21;44.98
39681;BME280;26327;42.550;23.120;2023-05-31T09:15:33;92972.56;;;28.28;46.33
39681;BME280;26327;42.550;23.120;2023-05-31T09:18:12;92924.13;;;27.63;47.14
39681;BME280;26327;42.550;23.120;2023-05-31T09:20:38;92916.13;;;26.94;47.59
39681;BME280;26327;42.550;23.120;2023-05-31T09:23:04;92918.31;;;26.48;46.91
39681;BME280;26327;42.550;23.120;2023-05-31T09:25:47;92930.06;;;26.47;47.67
39681;BME280;26327;42.550;23.120;2023-05-31T09:28:13;92973.75;;;26.51;48.10
39681;BME280;26327;42.550;23.120;2023-05-31T09:30:40;92903.16;;;25.84;49.02
39681;BME280;26327;42.550;23.120;2023-05-31T09:33:06;92917.59;;;25.58;51.59
39681;BME280;26327;42.550;23.120;2023-05-31T09:35:32;92927.47;;;25.42;52.37
39681;BME280;26327;42.550;23.120;2023-05-31T09:38:03;92964.47;;;25.18;55.06
39681;BME280;26327;42.550;23.120;2023-05-31T09:40:30;92944.75;;;24.84;54.34
39681;BME280;26327;42.550;23.120;2023-05-31T09:42:57;92947.88;;;24.55;55.54
39681;BME280;26327;42.550;23.120;2023-05-31T09:45:24;92951.84;;;24.47;56.92
39681;BME280;26327;42.550;23.120;2023-05-31T09:47:50;92960.88;;;24.46;56.77
39681;BME280;26327;42.550;23.120;2023-05-31T09:50:17;92965.38;;;24.31;57.30
39681;BME280;26327;42.550;23.120;2023-05-31T09:52:44;92958.81;;;23.96;58.66
39681;BME280;26327;42.550;23.120;2023-05-31T09:55:12;92977.81;;;23.68;59.88
39681;BME280;26327;42.550;23.120;2023-05-31T09:57:39;92980.09;;;22.36;70.13
39681;BME280;26327;42.550;23.120;2023-05-31T10:00:14;92972.41;;;20.68;89.40
39681;BME280;26327;42.550;23.120;2023-05-31T10:02:50;92941.28;;;18.98;100.00
39681;BME280;26327;42.550;23.120;2023-05-31T10:05:17;92972.19;;;19.61;100.00
39681;BME280;26327;42.550;23.120;2023-05-31T10:07:47;92961.66;;;19.61;100.00
39681;BME280;26327;42.550;23.120;2023-05-31T10:10:13;92989.47;;;19.80;100.00
39681;BME280;26327;42.550;23.120;2023-05-31T10:12:59;92990.78;;;20.06;100.00
39681;BME280;26327;42.550;23.120;2023-05-31T10:15:27;92990.97;;;19.76;100.00
39681;BME280;26327;42.550;23.120;2023-05-31T10:18:09;92978.00;;;19.87;100.00
39681;BME280;26327;42.550;23.120;2023-05-31T10:20:43;92963.44;;;19.84;100.00
39681;BME280;26327;42.550;23.120;2023-05-31T10:23:19;92953.91;;;19.95;100.00
39681;BME280;26327;42.550;23.120;2023-05-31T10:28:17;92893.25;;;19.95;100.00
39681;BME280;26327;42.550;23.120;2023-05-31T10:30:45;92950.53;;;20.39;100.00
39681;BME280;26327;42.550;23.120;2023-05-31T10:33:12;92879.03;;;19.96;100.00
39681;BME280;26327;42.550;23.120;2023-05-31T10:35:39;92929.25;;;20.18;100.00
39681;BME280;26327;42.550;23.120;2023-05-31T10:38:06;92933.69;;;20.29;100.00
39681;BME280;26327;42.550;23.120;2023-05-31T10:45:38;92955.00;;;20.10;100.00
39681;BME280;26327;42.550;23.120;2023-05-31T10:48:14;92956.06;;;20.26;100.00
39681;BME280;26327;42.550;23.120;2023-05-31T10:51:00;92941.47;;;20.35;100.00
39681;BME280;26327;42.550;23.120;2023-05-31T10:53:37;92840.66;;;19.88;100.00
39681;BME280;26327;42.550;23.120;2023-05-31T10:56:05;92926.44;;;20.36;100.00
39681;BME280;26327;42.550;23.120;2023-05-31T10:58:34;92946.09;;;20.00;100.00
39681;BME280;26327;42.550;23.120;2023-05-31T11:01:07;92883.00;;;19.70;100.00
39681;BME280;26327;42.550;23.120;2023-05-31T11:03:43;92924.09;;;19.54;100.00
39681;BME280;26327;42.550;23.120;2023-05-31T11:06:09;92933.97;;;19.87;100.00
39681;BME280;26327;42.550;23.120;2023-05-31T11:08:37;92908.88;;;20.41;100.00
39681;BME280;26327;42.550;23.120;2023-05-31T11:11:25;92938.50;;;20.77;100.00
39681;BME280;26327;42.550;23.120;2023-05-31T11:13:55;92890.63;;;20.73;100.00
39681;BME280;26327;42.550;23.120;2023-05-31T11:16:21;92880.56;;;20.87;100.00
39681;BME280;26327;42.550;23.120;2023-05-31T11:18:47;92930.81;;;21.26;100.00
39681;BME280;26327;42.550;23.120;2023-05-31T11:21:51;92940.31;;;21.44;100.00
39681;BME280;26327;42.550;23.120;2023-05-31T11:26:56;92930.31;;;21.89;100.00
39681;BME280;26327;42.550;23.120;2023-05-31T11:29:23;92931.75;;;22.46;100.00
39681;BME280;26327;42.550;23.120;2023-05-31T11:36:53;92887.31;;;22.53;100.00
39681;BME280;26327;42.550;23.120;2023-05-31T11:39:19;92861.06;;;22.78;100.00
39681;BME280;26327;42.550;23.120;2023-05-31T11:41:45;92902.50;;;23.32;100.00
39681;BME280;26327;42.550;23.120;2023-05-31T11:44:11;92796.22;;;22.49;100.00
39681;BME280;26327;42.550;23.120;2023-05-31T11:46:41;92855.00;;;23.20;100.00
39681;BME280;26327;42.550;23.120;2023-05-31T11:49:09;92892.41;;;23.76;100.00
39681;BME280;26327;42.550;23.120;2023-05-31T11:51:35;92894.59;;;23.94;100.00
39681;BME280;26327;42.550;23.120;2023-05-31T11:54:02;92825.75;;;23.57;100.00
39681;BME280;26327;42.550;23.120;2023-05-31T11:56:30;92886.78;;;24.50;100.00
39681;BME280;26327;42.550;23.120;2023-05-31T11:58:58;92880.41;;;24.51;100.00
39681;BME280;26327;42.550;23.120;2023-05-31T12:01:24;92879.34;;;24.52;100.00
39681;BME280;26327;42.550;23.120;2023-05-31T12:03:57;92860.66;;;24.11;100.00
39681;BME280;26327;42.550;23.120;2023-05-31T12:06:23;92883.75;;;24.11;100.00
39681;BME280;26327;42.550;23.120;2023-05-31T12:08:51;92823.00;;;23.37;100.00
39681;BME280;26327;42.550;23.120;2023-05-31T12:11:17;92817.47;;;22.96;100.00
39681;BME280;26327;42.550;23.120;2023-05-31T12:13:42;92883.25;;;23.04;100.00
39681;BME280;26327;42.550;23.120;2023-05-31T12:16:07;92811.00;;;22.45;100.00
39681;BME280;26327;42.550;23.120;2023-05-31T12:18:34;92870.44;;;23.91;100.00
39681;BME280;26327;42.550;23.120;2023-05-31T12:21:11;92878.53;;;24.36;100.00
39681;BME280;26327;42.550;23.120;2023-05-31T12:23:51;92880.69;;;24.49;100.00
39681;BME280;26327;42.550;23.120;2023-05-31T12:26:17;92819.81;;;24.12;100.00
39681;BME280;26327;42.550;23.120;2023-05-31T12:28:42;92811.84;;;24.94;100.00
39681;BME280;26327;42.550;23.120;2023-05-31T12:31:08;92811.84;;;25.04;100.00
39681;BME280;26327;42.550;23.120;2023-05-31T12:33:36;92796.88;;;25.33;100.00
39681;BME280;26327;42.550;23.120;2023-05-31T12:36:03;92793.06;;;25.60;100.00
39681;BME280;26327;42.550;23.120;2023-05-31T12:38:29;92801.56;;;25.72;100.00
39681;BME280;26327;42.550;23.120;2023-05-31T12:40:55;92860.44;;;26.15;100.00
39681;BME280;26327;42.550;23.120;2023-05-31T12:43:20;92867.56;;;25.65;98.46
39681;BME280;26327;42.550;23.120;2023-05-31T12:45:46;92848.69;;;25.56;100.00
39681;BME280;26327;42.550;23.120;2023-05-31T12:48:11;92862.88;;;24.86;98.35
39681;BME280;26327;42.550;23.120;2023-05-31T12:50:44;92801.28;;;24.33;100.00
39681;BME280;26327;42.550;23.120;2023-05-31T12:53:10;92850.56;;;23.98;95.37
39681;BME280;26327;42.550;23.120;2023-05-31T12:55:35;92873.06;;;23.28;92.55
39681;BME280;26327;42.550;23.120;2023-05-31T12:58:00;92851.66;;;22.66;97.16
39681;BME280;26327;42.550;23.120;2023-05-31T13:00:26;92800.50;;;21.96;96.74
39681;BME280;26327;42.550;23.120;2023-05-31T13:02:51;92881.19;;;22.20;100.00
39681;BME280;26327;42.550;23.120;2023-05-31T13:05:17;92838.41;;;22.28;100.00
39681;BME280;26327;42.550;23.120;2023-05-31T13:07:44;92861.09;;;21.97;99.55
39681;BME280;26327;42.550;23.120;2023-05-31T13:10:11;92848.72;;;22.25;98.58
39681;BME280;26327;42.550;23.120;2023-05-31T13:12:36;92870.06;;;23.14;100.00